Clarinda, Schenck Field (KICL)

NameSchenck Field
CityClarinda
CountryUnited States
ICAOKICL
IATAICL
Altitude304 m
CoordinatesGoogle Map
Live Air TrafficLiveATC.net
METARKICL 191455Z AUTO 00000KT 10SM CLR 06/04 A2993 RMK AO2
2019-11-19 14:55:00 Wind: North (0°) 0 m/s - Visibility: 16093.4 m - Temperature: 6 °C - Dew point: 4 °C - Humidity: 87.2% - Pressure: 1013.55 hPa

Sorry, no flights used the airport in this database.